Terminal Aerodrome Forecast
Issued by NWS

Home | Current Version | Previous Version | Graphics & Text | Print | Product List | Glossary On
Versions: 1 2 3 4 5 6 7 8 9 10 11 12 13
664
FTUS43 KBIS 250524
TAFMOT
TAF
KMOT 250524Z 2506/2606 24006KT P6SM BKN080
     FM250700 25006KT P6SM VCSH BKN080 BKN100
     FM250900 25005KT P6SM BKN100
     FM251500 32012KT P6SM VCSH BKN060 BKN100
     FM252100 32012KT P6SM SCT070
     FM260200 36007KT P6SM SKC=

USA.gov is the U.S. government's official web portal to all federal, state and local government web resources and services.